Time;durP1;ratioP1;P1;durP2;ratioP2;P2;SDS_P1;SDS_P2;PMS_P1;PMS_P2;Temp;Humidity;BMP_temperature;BMP_pressure;BME280_temperature;BME280_humidity;BME280_pressure;Samples;Min_cycle;Max_cycle;Signal;HPM_P1;HPM_P2
2024/02/19 00:01:30;;;;;;;5.90;2.03;;;12.60;83.00;;;;;;4959078;28;20042;-90
2024/02/19 00:03:56;;;;;;;6.13;2.25;;;12.60;83.00;;;;;;4951990;28;20028;-88
2024/02/19 00:06:24;;;;;;;6.53;2.00;;;12.60;83.00;;;;;;4934003;29;20035;-80
2024/02/19 00:08:53;;;;;;;5.85;2.22;;;12.60;83.00;;;;;;4933574;29;20530;-81
2024/02/19 00:11:19;;;;;;;5.72;2.10;;;12.50;83.00;;;;;;4952378;29;20447;-83
2024/02/19 00:13:48;;;;;;;5.22;2.08;;;12.60;83.00;;;;;;4967037;28;20019;-96
2024/02/19 00:16:14;;;;;;;6.28;2.53;;;12.60;83.00;;;;;;4948465;29;20474;-80
2024/02/19 00:18:40;;;;;;;5.82;1.98;;;12.50;82.90;;;;;;4955338;28;20475;-80
2024/02/19 00:21:05;;;;;;;5.60;2.20;;;12.50;83.00;;;;;;4946961;28;20023;-96
2024/02/19 00:23:35;;;;;;;5.20;2.10;;;12.50;83.00;;;;;;4943285;29;20028;-95
2024/02/19 00:26:02;;;;;;;5.20;1.80;;;12.50;83.00;;;;;;4957203;28;20519;-83
2024/02/19 00:28:28;;;;;;;7.15;2.15;;;12.50;83.00;;;;;;4957020;28;20031;-83
2024/02/19 00:30:54;;;;;;;4.18;2.05;;;12.50;83.00;;;;;;4953212;28;20070;-80
2024/02/19 00:33:20;;;;;;;4.95;2.03;;;12.50;83.00;;;;;;4951571;28;20505;-96
2024/02/19 00:35:46;;;;;;;4.43;1.90;;;12.50;83.00;;;;;;4956279;29;20047;-96
2024/02/19 00:38:12;;;;;;;7.38;2.42;;;12.50;83.00;;;;;;4939344;29;20027;-90
2024/02/19 00:40:40;;;;;;;6.38;1.90;;;12.50;83.00;;;;;;4953738;28;20595;-89
2024/02/19 00:43:06;;;;;;;6.13;1.83;;;12.50;83.00;;;;;;4953217;28;20023;-81
2024/02/19 00:45:31;;;;;;;6.20;2.20;;;12.50;83.00;;;;;;4951381;28;20404;-90
2024/02/19 00:47:58;;;;;;;4.63;2.05;;;12.50;83.00;;;;;;4952394;29;20028;-90
2024/02/19 00:50:24;;;;;;;4.53;2.05;;;12.50;83.00;;;;;;4936264;28;20105;-80
2024/02/19 00:52:50;;;;;;;5.57;2.20;;;12.50;83.60;;;;;;4947951;28;20027;-81
2024/02/19 00:55:20;;;;;;;6.97;2.30;;;12.50;83.00;;;;;;4955178;28;20063;-96
2024/02/19 00:57:47;;;;;;;4.88;2.15;;;12.50;83.00;;;;;;4951132;28;20724;-89
2024/02/19 01:00:13;;;;;;;4.40;1.80;;;12.50;83.00;;;;;;4950777;28;20023;-90
2024/02/19 01:02:40;;;;;;;6.93;2.05;;;12.50;83.00;;;;;;4937556;28;20027;-81
2024/02/19 01:05:06;;;;;;;4.38;1.83;;;12.40;82.90;;;;;;4968026;28;20039;-89
2024/02/19 01:07:32;;;;;;;6.57;2.15;;;12.40;83.00;;;;;;4933636;29;20037;-90
2024/02/19 01:09:58;;;;;;;4.20;1.85;;;12.40;82.90;;;;;;4953083;28;20039;-96
2024/02/19 01:12:24;;;;;;;7.43;2.03;;;12.40;82.90;;;;;;4938516;29;20027;-82
2024/02/19 01:14:50;;;;;;;3.10;1.67;;;12.40;83.00;;;;;;4954044;28;20057;-95
2024/02/19 01:17:16;;;;;;;4.82;1.92;;;12.40;83.00;;;;;;4956476;29;20034;-96
2024/02/19 01:19:44;;;;;;;5.40;1.80;;;12.40;83.00;;;;;;4954548;29;20035;-90
2024/02/19 01:22:10;;;;;;;6.40;1.90;;;12.40;83.00;;;;;;4948001;28;20443;-83
2024/02/19 01:24:36;;;;;;;6.10;1.98;;;12.40;83.00;;;;;;4945013;28;20054;-95
2024/02/19 01:27:02;;;;;;;3.92;1.60;;;12.40;83.00;;;;;;4947904;28;20034;-96
2024/02/19 01:29:28;;;;;;;5.38;1.90;;;12.40;83.00;;;;;;4957551;28;20026;-83
2024/02/19 01:31:54;;;;;;;7.10;2.35;;;12.40;83.00;;;;;;4957623;28;20034;-83
2024/02/19 01:34:20;;;;;;;5.03;1.80;;;12.40;83.00;;;;;;4941141;28;20046;-80
2024/02/19 01:36:47;;;;;;;6.00;2.28;;;12.40;83.00;;;;;;4959010;28;20058;-83
2024/02/19 01:39:13;;;;;;;5.57;2.10;;;12.40;83.00;;;;;;4940448;28;20388;-90
2024/02/19 01:41:38;;;;;;;4.65;2.20;;;12.40;83.00;;;;;;4942150;28;20109;-80
2024/02/19 01:44:04;;;;;;;5.03;2.17;;;12.40;83.00;;;;;;4938700;28;20112;-80
2024/02/19 01:46:35;;;;;;;5.43;1.90;;;12.40;83.00;;;;;;4938806;28;20034;-80
2024/02/19 01:49:01;;;;;;;3.88;1.73;;;12.40;83.00;;;;;;4961579;28;20514;-83
2024/02/19 01:51:28;;;;;;;6.57;2.00;;;12.40;83.00;;;;;;4956114;28;20035;-78
2024/02/19 01:53:55;;;;;;;4.63;2.10;;;12.30;82.90;;;;;;4952338;28;20111;-80
2024/02/19 01:56:22;;;;;;;5.25;2.05;;;12.30;82.90;;;;;;4936629;28;20495;-79
2024/02/19 01:58:49;;;;;;;7.80;2.20;;;12.30;82.90;;;;;;4934180;28;20550;-79
2024/02/19 02:01:15;;;;;;;4.65;1.90;;;12.30;82.90;;;;;;4953520;28;20035;-79
2024/02/19 02:03:46;;;;;;;5.70;1.92;;;12.30;83.00;;;;;;4936451;28;20037;-95
2024/02/19 02:06:12;;;;;;;4.88;1.73;;;12.30;83.00;;;;;;4954878;28;20038;-96
2024/02/19 02:08:40;;;;;;;4.03;1.70;;;12.30;83.00;;;;;;4969512;28;20023;-84
2024/02/19 02:11:09;;;;;;;5.38;2.00;;;12.30;83.00;;;;;;4951281;28;20097;-83
2024/02/19 02:13:35;;;;;;;6.85;2.25;;;12.30;82.90;;;;;;4938721;28;20155;-90
2024/02/19 02:16:02;;;;;;;5.63;2.15;;;12.30;82.90;;;;;;4952604;28;20030;-90
2024/02/19 02:18:32;;;;;;;6.05;2.13;;;12.30;83.00;;;;;;4959492;28;20121;-93
2024/02/19 02:20:58;;;;;;;4.57;1.70;;;12.30;83.00;;;;;;4949814;28;20031;-80
2024/02/19 02:23:25;;;;;;;5.63;1.85;;;12.30;83.00;;;;;;4940718;28;20022;-93
2024/02/19 02:25:54;;;;;;;3.42;1.60;;;12.30;83.00;;;;;;4957632;28;20442;-91
2024/02/19 02:28:23;;;;;;;4.20;1.77;;;12.30;83.00;;;;;;4958332;28;20084;-80
2024/02/19 02:30:50;;;;;;;6.63;2.10;;;12.30;83.00;;;;;;4957196;28;20033;-90
2024/02/19 02:33:17;;;;;;;3.88;1.70;;;12.30;83.00;;;;;;4953931;28;20254;-83
2024/02/19 02:35:45;;;;;;;3.42;1.88;;;12.20;83.00;;;;;;4959122;28;20022;-94
2024/02/19 02:38:11;;;;;;;5.70;2.05;;;12.30;83.00;;;;;;4951453;28;20019;-96
2024/02/19 02:40:37;;;;;;;5.55;2.00;;;12.20;82.90;;;;;;4957386;28;20042;-83
2024/02/19 02:43:03;;;;;;;5.00;2.10;;;12.20;83.00;;;;;;4933252;28;20027;-80
2024/02/19 02:45:30;;;;;;;5.05;1.95;;;12.20;83.60;;;;;;4955435;28;20085;-80
2024/02/19 02:47:55;;;;;;;4.07;1.75;;;12.20;83.00;;;;;;4942150;28;20030;-95
2024/02/19 02:50:21;;;;;;;5.88;2.25;;;12.20;83.00;;;;;;4955927;28;20086;-83
2024/02/19 02:52:47;;;;;;;5.40;1.80;;;12.20;83.00;;;;;;4938220;28;20031;-80
2024/02/19 02:55:13;;;;;;;4.22;1.70;;;12.20;83.00;;;;;;4937419;28;20050;-89
2024/02/19 02:57:39;;;;;;;5.55;1.90;;;12.20;82.90;;;;;;4948416;28;20111;-90
2024/02/19 03:00:05;;;;;;;4.80;1.85;;;12.20;83.00;;;;;;4939922;28;20058;-80
2024/02/19 03:02:32;;;;;;;5.47;1.88;;;12.20;83.00;;;;;;4950779;28;20037;-95
2024/02/19 03:04:58;;;;;;;4.40;1.98;;;12.20;83.00;;;;;;4949063;28;20066;-80
2024/02/19 03:07:24;;;;;;;5.95;1.95;;;12.20;83.00;;;;;;4952428;28;20055;-94
2024/02/19 03:09:50;;;;;;;3.70;1.77;;;12.20;83.00;;;;;;4951196;28;20483;-81
2024/02/19 03:12:16;;;;;;;4.53;1.88;;;12.10;83.00;;;;;;4956061;28;20038;-94
2024/02/19 03:14:42;;;;;;;4.30;1.80;;;12.10;83.00;;;;;;4951328;28;20036;-83
2024/02/19 03:17:08;;;;;;;4.63;2.05;;;12.10;83.00;;;;;;4935678;28;20027;-90
2024/02/19 03:19:33;;;;;;;3.47;1.88;;;12.10;83.00;;;;;;4931909;28;20043;-80
2024/02/19 03:21:59;;;;;;;6.32;1.95;;;12.10;83.00;;;;;;4933987;28;20051;-90
2024/02/19 03:24:25;;;;;;;7.05;1.90;;;12.10;83.00;;;;;;4957009;28;20022;-96
2024/02/19 03:26:51;;;;;;;4.82;1.73;;;12.10;83.00;;;;;;4957176;28;20035;-95
2024/02/19 03:29:17;;;;;;;5.18;1.90;;;12.10;83.00;;;;;;4956462;28;21046;-94
2024/02/19 03:31:44;;;;;;;4.18;1.90;;;12.10;83.00;;;;;;4958557;28;20031;-91
2024/02/19 03:34:13;;;;;;;4.55;1.90;;;12.10;83.00;;;;;;4953762;28;20035;-89
2024/02/19 03:36:45;;;;;;;6.45;2.20;;;12.10;83.00;;;;;;4940555;28;20031;-90
2024/02/19 03:39:10;;;;;;;4.45;1.80;;;12.10;83.00;;;;;;4955697;28;20447;-80
2024/02/19 03:41:38;;;;;;;4.93;1.83;;;12.00;83.00;;;;;;4939501;28;20086;-85
2024/02/19 03:44:04;;;;;;;4.40;1.70;;;12.00;83.00;;;;;;4940621;28;20027;-93
2024/02/19 03:46:30;;;;;;;4.43;1.55;;;12.00;83.00;;;;;;4940290;28;20027;-80
2024/02/19 03:48:56;;;;;;;5.50;2.03;;;12.00;83.00;;;;;;4964660;28;20110;-90
2024/02/19 03:51:22;;;;;;;6.30;2.15;;;12.10;83.10;;;;;;4955192;28;20049;-80
2024/02/19 03:53:48;;;;;;;5.63;2.28;;;12.00;83.10;;;;;;4938741;28;20034;-89
2024/02/19 03:56:14;;;;;;;5.05;1.70;;;12.00;83.10;;;;;;4952518;28;20046;-94
2024/02/19 03:58:40;;;;;;;5.97;1.80;;;12.00;83.10;;;;;;4934653;28;20050;-82
2024/02/19 04:01:06;;;;;;;4.47;1.65;;;12.00;83.10;;;;;;4952010;28;20023;-83
2024/02/19 04:03:32;;;;;;;5.72;1.98;;;12.00;83.10;;;;;;4934403;28;20054;-90
2024/02/19 04:05:58;;;;;;;5.63;2.00;;;12.00;83.10;;;;;;4931677;28;20058;-83
2024/02/19 04:08:23;;;;;;;6.28;2.40;;;12.00;83.10;;;;;;4934975;28;20030;-79
2024/02/19 04:10:49;;;;;;;4.25;1.83;;;12.00;83.10;;;;;;4944408;28;20055;-83
2024/02/19 04:13:15;;;;;;;5.90;1.98;;;12.00;83.10;;;;;;4939277;28;20023;-94
2024/02/19 04:15:41;;;;;;;5.70;1.90;;;12.00;83.10;;;;;;4935855;28;20593;-95
2024/02/19 04:18:07;;;;;;;5.35;2.05;;;12.00;83.10;;;;;;4947704;28;20034;-83
2024/02/19 04:20:32;;;;;;;5.40;1.95;;;12.00;83.10;;;;;;4938919;28;20034;-83
2024/02/19 04:22:58;;;;;;;4.47;1.75;;;12.00;83.10;;;;;;4939585;28;20015;-80
2024/02/19 04:25:25;;;;;;;7.63;2.03;;;11.90;83.10;;;;;;4939964;28;20133;-83
2024/02/19 04:27:52;;;;;;;4.40;1.80;;;12.00;83.10;;;;;;4957297;28;20027;-80
2024/02/19 04:30:18;;;;;;;4.03;2.00;;;12.00;83.10;;;;;;4954552;28;20102;-83
2024/02/19 04:32:44;;;;;;;7.38;2.10;;;12.00;83.10;;;;;;4955743;28;20106;-95
2024/02/19 04:35:10;;;;;;;5.47;1.95;;;12.00;83.10;;;;;;4956634;28;20035;-96
2024/02/19 04:37:36;;;;;;;6.20;2.30;;;12.00;83.20;;;;;;4938990;28;20031;-80
2024/02/19 04:40:02;;;;;;;6.90;2.38;;;12.00;83.20;;;;;;4945190;28;20027;-89
2024/02/19 04:42:28;;;;;;;5.13;2.08;;;12.00;83.20;;;;;;4955464;28;20027;-82
2024/02/19 04:44:54;;;;;;;7.35;2.17;;;11.90;83.10;;;;;;4943729;28;20394;-83
2024/02/19 04:47:20;;;;;;;5.03;2.15;;;11.90;83.10;;;;;;4958104;28;20031;-94
2024/02/19 04:49:47;;;;;;;6.20;2.13;;;12.00;83.20;;;;;;4942090;28;20046;-80
2024/02/19 04:52:14;;;;;;;7.35;2.25;;;11.90;83.10;;;;;;4974750;28;20110;-94
2024/02/19 04:54:39;;;;;;;4.85;2.10;;;11.90;83.20;;;;;;4939992;28;20022;-90
2024/02/19 04:57:05;;;;;;;6.80;2.15;;;11.90;83.20;;;;;;4951713;28;20387;-83
2024/02/19 04:59:31;;;;;;;7.80;2.30;;;11.90;83.20;;;;;;4953383;28;20550;-83
2024/02/19 05:01:57;;;;;;;4.85;2.05;;;11.90;83.20;;;;;;4941695;28;20102;-83
2024/02/19 05:04:24;;;;;;;4.57;1.98;;;11.90;83.10;;;;;;4955036;28;20483;-83
2024/02/19 05:06:50;;;;;;;6.10;2.00;;;11.90;83.10;;;;;;4953962;28;20027;-80
2024/02/19 05:09:15;;;;;;;3.75;1.92;;;12.00;83.10;;;;;;4938728;28;20069;-90
2024/02/19 05:11:41;;;;;;;4.30;2.05;;;11.90;83.10;;;;;;4940072;28;20022;-95
2024/02/19 05:14:07;;;;;;;4.78;2.03;;;11.90;83.10;;;;;;4956918;28;20541;-95
2024/02/19 05:16:34;;;;;;;6.20;2.30;;;11.90;83.10;;;;;;4954134;28;20030;-94
2024/02/19 05:19:00;;;;;;;4.40;1.90;;;11.90;83.10;;;;;;4951373;28;20027;-95
2024/02/19 05:21:26;;;;;;;3.92;1.75;;;11.90;83.10;;;;;;4937231;28;20527;-89
2024/02/19 05:23:51;;;;;;;5.18;2.35;;;11.90;83.10;;;;;;4942217;28;20053;-90
2024/02/19 05:26:27;;;;;;;5.70;2.20;;;12.00;83.20;;;;;;4943129;28;20034;-88
2024/02/19 05:28:54;;;;;;;4.30;2.03;;;11.90;83.20;;;;;;4954702;28;20388;-80
2024/02/19 05:31:34;;;;;;;3.75;1.90;;;11.90;83.20;;;;;;4954450;28;20505;-90
2024/02/19 05:34:03;;;;;;;3.38;1.90;;;11.90;83.20;;;;;;4953020;28;20089;-90
2024/02/19 05:36:29;;;;;;;3.78;2.10;;;11.90;83.20;;;;;;4949817;28;20039;-90
2024/02/19 05:38:55;;;;;;;3.10;1.77;;;11.90;83.20;;;;;;4935618;28;20037;-83
2024/02/19 05:41:21;;;;;;;4.18;1.85;;;11.90;83.10;;;;;;4954338;28;20034;-83
2024/02/19 05:43:47;;;;;;;4.63;2.10;;;11.90;83.20;;;;;;4951740;28;20530;-89
2024/02/19 05:46:17;;;;;;;4.03;2.05;;;11.90;83.10;;;;;;4972033;28;20482;-80
2024/02/19 05:48:43;;;;;;;8.48;2.20;;;11.90;83.10;;;;;;4933819;28;20046;-79
2024/02/19 05:51:11;;;;;;;4.45;1.90;;;11.90;83.10;;;;;;4968738;28;20043;-84
2024/02/19 05:53:40;;;;;;;3.63;2.00;;;11.90;83.10;;;;;;4949118;28;20035;-80
2024/02/19 05:56:09;;;;;;;3.25;1.90;;;11.90;83.20;;;;;;4938078;28;20153;-80
2024/02/19 05:58:37;;;;;;;4.90;2.30;;;11.90;83.20;;;;;;4934126;28;20034;-83
2024/02/19 06:01:04;;;;;;;4.72;2.08;;;11.90;83.20;;;;;;4956868;28;20019;-94
2024/02/19 06:03:33;;;;;;;5.72;2.17;;;11.90;83.20;;;;;;4942427;28;20252;-94
2024/02/19 06:05:58;;;;;;;3.53;1.90;;;11.90;83.20;;;;;;4956639;28;20026;-95
2024/02/19 06:08:24;;;;;;;5.05;2.22;;;11.90;83.20;;;;;;4939349;28;20114;-81
2024/02/19 06:10:50;;;;;;;4.15;1.83;;;11.90;83.20;;;;;;4936160;28;20018;-83
2024/02/19 06:13:15;;;;;;;5.30;2.33;;;11.90;83.20;;;;;;4941509;28;20361;-84
2024/02/19 06:15:44;;;;;;;4.82;2.30;;;11.90;83.20;;;;;;4936607;28;20034;-89
2024/02/19 06:18:10;;;;;;;4.50;1.98;;;11.90;83.10;;;;;;4954154;28;20031;-82
2024/02/19 06:20:39;;;;;;;4.38;2.20;;;11.90;83.20;;;;;;4968182;28;20030;-92
2024/02/19 06:23:05;;;;;;;3.78;2.05;;;11.90;83.20;;;;;;4933625;28;20027;-82
2024/02/19 06:25:30;;;;;;;3.88;2.17;;;11.90;83.20;;;;;;4932456;28;20058;-81
2024/02/19 06:27:57;;;;;;;5.95;2.20;;;11.90;83.20;;;;;;4935896;28;20035;-81
2024/02/19 06:30:22;;;;;;;4.38;1.73;;;11.90;83.20;;;;;;4957432;28;20376;-95
2024/02/19 06:32:48;;;;;;;3.17;2.08;;;11.90;83.20;;;;;;4956157;28;20100;-89
2024/02/19 06:35:14;;;;;;;3.53;2.13;;;11.90;83.20;;;;;;4937497;28;20027;-92
2024/02/19 06:37:41;;;;;;;4.05;2.03;;;11.90;83.20;;;;;;4938010;28;20023;-80
2024/02/19 06:40:07;;;;;;;7.18;2.40;;;11.90;83.20;;;;;;4958163;28;20038;-80
2024/02/19 06:42:33;;;;;;;3.42;2.13;;;11.90;83.20;;;;;;4956281;28;20030;-93
2024/02/19 06:44:59;;;;;;;3.85;2.08;;;11.80;83.10;;;;;;4940281;28;20042;-92
2024/02/19 06:47:25;;;;;;;3.97;2.05;;;11.90;83.20;;;;;;4941430;28;20023;-80
2024/02/19 06:49:52;;;;;;;3.72;2.33;;;11.90;83.20;;;;;;4940550;28;20037;-83
2024/02/19 06:52:22;;;;;;;5.07;2.47;;;11.90;83.20;;;;;;4942432;28;20031;-83
2024/02/19 06:54:49;;;;;;;4.63;2.53;;;11.90;83.20;;;;;;4956701;28;20039;-91
2024/02/19 06:57:15;;;;;;;4.10;2.03;;;11.90;83.10;;;;;;4941061;28;20027;-81
2024/02/19 06:59:41;;;;;;;3.58;2.00;;;11.90;83.10;;;;;;4941027;28;20093;-91
2024/02/19 07:02:08;;;;;;;4.43;2.47;;;11.90;83.20;;;;;;4942320;28;20098;-93
2024/02/19 07:04:36;;;;;;;6.68;2.63;;;11.90;83.20;;;;;;4957451;28;20057;-84
2024/02/19 07:07:08;;;;;;;5.00;2.47;;;11.90;83.20;;;;;;4942788;28;20134;-92
2024/02/19 07:09:38;;;;;;;3.95;2.00;;;11.90;83.20;;;;;;4955529;28;20114;-82
2024/02/19 07:12:05;;;;;;;6.63;2.78;;;11.90;83.20;;;;;;4955425;28;20030;-93
2024/02/19 07:14:32;;;;;;;5.03;2.30;;;11.80;83.10;;;;;;4955810;28;20487;-82
2024/02/19 07:16:58;;;;;;;4.63;2.25;;;11.90;83.20;;;;;;4957412;28;20424;-92
2024/02/19 07:19:23;;;;;;;5.50;2.45;;;11.80;83.20;;;;;;4940729;28;20022;-81
2024/02/19 07:21:49;;;;;;;4.97;2.10;;;11.80;83.10;;;;;;4940949;28;20018;-84
2024/02/19 07:24:15;;;;;;;4.78;2.50;;;11.80;83.10;;;;;;4936637;28;20030;-82
2024/02/19 07:26:40;;;;;;;3.70;2.50;;;11.90;83.20;;;;;;4940005;28;20047;-92
2024/02/19 07:29:06;;;;;;;6.55;2.50;;;11.90;83.20;;;;;;4942506;28;20455;-81
2024/02/19 07:31:33;;;;;;;6.28;2.50;;;11.80;83.20;;;;;;4956911;28;20042;-81
2024/02/19 07:33:59;;;;;;;4.30;2.20;;;11.90;83.30;;;;;;4940069;28;20111;-90
2024/02/19 07:36:24;;;;;;;4.20;2.35;;;11.90;83.30;;;;;;4959700;28;20046;-95
2024/02/19 07:38:50;;;;;;;5.05;2.60;;;11.90;83.20;;;;;;4940826;28;20027;-84
2024/02/19 07:41:17;;;;;;;3.05;2.10;;;11.80;83.20;;;;;;4940294;28;20073;-95
2024/02/19 07:43:44;;;;;;;4.25;2.20;;;11.80;83.20;;;;;;4958355;28;20039;-89
2024/02/19 07:46:10;;;;;;;3.90;2.13;;;11.80;83.20;;;;;;4940359;28;20035;-85
2024/02/19 07:48:36;;;;;;;5.00;2.28;;;11.90;83.20;;;;;;4940176;28;20046;-92
2024/02/19 07:51:02;;;;;;;4.25;2.60;;;11.90;83.20;;;;;;4941063;28;20035;-82
2024/02/19 07:53:28;;;;;;;5.57;2.20;;;11.90;83.30;;;;;;4957503;28;20054;-86
2024/02/19 07:56:05;;;;;;;4.40;2.08;;;11.80;83.30;;;;;;4940840;28;20034;-85
2024/02/19 07:58:31;;;;;;;3.85;2.22;;;11.90;83.40;;;;;;4954813;28;20488;-89
2024/02/19 08:00:57;;;;;;;4.03;2.33;;;11.90;83.40;;;;;;4939980;28;20031;-86
2024/02/19 08:03:23;;;;;;;4.25;2.35;;;11.80;83.30;;;;;;4958800;28;20029;-82
2024/02/19 08:05:49;;;;;;;3.58;2.10;;;11.80;83.30;;;;;;4940018;28;20472;-82
2024/02/19 08:08:15;;;;;;;4.57;2.35;;;11.80;83.30;;;;;;4938701;28;20032;-93
2024/02/19 08:10:41;;;;;;;4.70;2.22;;;11.90;83.40;;;;;;4940886;28;20034;-85
2024/02/19 08:13:08;;;;;;;3.53;2.00;;;11.80;83.90;;;;;;4956180;28;20027;-87
2024/02/19 08:15:37;;;;;;;4.32;2.28;;;11.90;83.40;;;;;;4955723;28;20627;-84
2024/02/19 08:18:04;;;;;;;5.32;2.30;;;11.90;83.40;;;;;;4960592;28;20075;-85
2024/02/19 08:20:30;;;;;;;3.40;2.13;;;11.90;83.40;;;;;;4959274;28;20356;-85
2024/02/19 08:22:56;;;;;;;3.65;2.20;;;11.90;83.40;;;;;;4959372;28;20062;-85
2024/02/19 08:25:23;;;;;;;4.32;2.47;;;11.90;83.40;;;;;;4963439;28;20090;-82
2024/02/19 08:27:50;;;;;;;5.78;2.20;;;11.90;83.40;;;;;;4955362;29;20062;-85
2024/02/19 08:30:16;;;;;;;5.57;2.33;;;11.90;83.40;;;;;;4970252;28;20026;-81
2024/02/19 08:32:42;;;;;;;4.72;2.40;;;11.90;83.40;;;;;;4960118;28;20035;-85
2024/02/19 08:35:08;;;;;;;4.07;2.22;;;11.90;83.30;;;;;;4955503;28;20050;-85
2024/02/19 08:37:34;;;;;;;4.90;2.22;;;11.90;83.40;;;;;;4955613;28;20113;-85
2024/02/19 08:40:01;;;;;;;4.32;2.22;;;12.00;83.40;;;;;;4970316;28;20093;-96
2024/02/19 08:42:27;;;;;;;5.53;2.50;;;12.00;83.40;;;;;;4974008;28;20015;-96
2024/02/19 08:44:52;;;;;;;4.70;2.30;;;12.00;83.30;;;;;;4944385;28;20049;-81
2024/02/19 08:47:18;;;;;;;3.70;2.20;;;12.00;83.30;;;;;;4939790;28;20431;-90
2024/02/19 08:49:44;;;;;;;4.60;2.40;;;12.00;83.30;;;;;;4951439;28;20037;-81
2024/02/19 08:52:10;;;;;;;4.68;2.28;;;12.00;83.30;;;;;;4971750;28;20023;-84
2024/02/19 08:54:36;;;;;;;5.07;2.58;;;12.00;83.30;;;;;;4961196;28;20122;-96
2024/02/19 08:57:02;;;;;;;5.75;2.60;;;12.00;83.30;;;;;;4967022;28;20023;-96
2024/02/19 08:59:28;;;;;;;4.43;2.38;;;12.10;83.30;;;;;;4959387;28;20034;-88
2024/02/19 09:01:53;;;;;;;5.18;2.40;;;12.10;83.30;;;;;;4939838;28;20019;-84
2024/02/19 09:04:20;;;;;;;5.10;2.55;;;12.10;83.30;;;;;;4960850;28;20023;-89
2024/02/19 09:06:46;;;;;;;4.80;2.45;;;12.10;83.30;;;;;;4940482;28;20023;-88
2024/02/19 09:09:12;;;;;;;4.63;2.20;;;12.20;83.30;;;;;;4962338;28;20022;-96
2024/02/19 09:11:38;;;;;;;5.53;2.40;;;12.10;83.20;;;;;;4945591;28;20042;-84
2024/02/19 09:14:04;;;;;;;5.05;2.50;;;12.20;83.30;;;;;;4961881;28;20657;-95
2024/02/19 09:16:33;;;;;;;5.25;2.70;;;12.20;83.20;;;;;;4962193;28;20093;-96
2024/02/19 09:18:59;;;;;;;4.25;2.20;;;12.20;83.20;;;;;;4963699;28;20034;-96
2024/02/19 09:21:25;;;;;;;5.63;2.80;;;12.20;83.10;;;;;;4946777;28;20027;-96
2024/02/19 09:23:54;;;;;;;4.65;2.60;;;12.20;83.10;;;;;;4947250;28;20125;-96
2024/02/19 09:26:20;;;;;;;4.85;2.53;;;12.30;83.10;;;;;;4961111;28;20046;-96
2024/02/19 09:28:46;;;;;;;3.50;2.28;;;12.30;83.10;;;;;;4961256;28;20475;-83
2024/02/19 09:31:12;;;;;;;6.70;2.72;;;12.30;83.00;;;;;;4958411;28;20015;-89
2024/02/19 09:33:44;;;;;;;4.65;2.83;;;12.30;83.00;;;;;;4939376;28;20039;-81
2024/02/19 09:36:16;;;;;;;4.28;2.60;;;12.40;83.00;;;;;;4935575;28;20122;-96
2024/02/19 09:38:42;;;;;;;8.07;3.00;;;12.40;83.00;;;;;;4962034;28;20389;-96
2024/02/19 09:41:08;;;;;;;4.07;2.45;;;12.30;82.90;;;;;;4925436;28;20050;-89
2024/02/19 09:43:35;;;;;;;4.85;2.83;;;12.40;83.00;;;;;;4953359;28;20134;-81
2024/02/19 09:46:03;;;;;;;5.47;2.40;;;12.40;82.90;;;;;;4964950;28;20026;-96
2024/02/19 09:48:32;;;;;;;5.05;2.60;;;12.40;82.90;;;;;;4957313;28;20113;-81
2024/02/19 09:51:00;;;;;;;5.85;2.88;;;12.40;82.90;;;;;;4973601;28;20317;-81
2024/02/19 09:53:32;;;;;;;5.07;2.63;;;12.50;83.00;;;;;;4930504;28;20031;-82
2024/02/19 09:55:58;;;;;;;4.53;2.83;;;12.50;82.90;;;;;;4951423;28;20035;-81
2024/02/19 09:58:26;;;;;;;5.55;2.80;;;12.50;82.90;;;;;;4960610;28;20023;-96
2024/02/19 10:00:52;;;;;;;5.18;2.53;;;12.50;82.90;;;;;;4944252;28;20109;-85
2024/02/19 10:03:19;;;;;;;6.03;3.00;;;12.50;82.90;;;;;;4935372;28;20031;-89
2024/02/19 10:05:47;;;;;;;5.38;2.83;;;12.50;82.90;;;;;;4955688;28;20046;-81
2024/02/19 10:08:14;;;;;;;4.50;2.90;;;12.50;82.90;;;;;;4940196;28;20391;-94
2024/02/19 10:10:43;;;;;;;5.57;2.70;;;12.60;82.90;;;;;;4939434;28;20514;-88
2024/02/19 10:13:11;;;;;;;4.53;2.72;;;12.60;82.90;;;;;;4954626;29;20027;-81
2024/02/19 10:15:37;;;;;;;4.07;2.85;;;12.60;82.90;;;;;;4956365;28;20384;-93
2024/02/19 10:18:21;;;;;;;5.35;2.97;;;12.60;82.80;;;;;;4956787;28;20023;-93
2024/02/19 10:20:50;;;;;;;5.25;3.00;;;12.60;82.80;;;;;;4953139;28;20035;-89
2024/02/19 10:23:26;;;;;;;6.47;3.20;;;12.60;82.80;;;;;;4950028;28;20030;-85
2024/02/19 10:26:58;;;;;;;5.30;2.90;;;12.70;82.80;;;;;;5058998;28;20423;-90
2024/02/19 10:29:28;;;;;;;4.78;3.00;;;12.70;82.80;;;;;;5048985;28;20047;-90
2024/02/19 10:31:54;;;;;;;5.32;3.30;;;12.70;82.80;;;;;;5042319;28;20071;-93
2024/02/19 10:34:20;;;;;;;6.05;2.97;;;12.70;82.70;;;;;;5029152;28;20018;-87
2024/02/19 10:36:49;;;;;;;5.00;3.10;;;12.70;82.70;;;;;;5050364;28;20025;-84
2024/02/19 10:39:15;;;;;;;4.93;2.85;;;12.80;82.80;;;;;;5047040;28;20028;-85
2024/02/19 10:41:42;;;;;;;5.75;3.40;;;12.80;82.70;;;;;;5052422;28;20017;-92
2024/02/19 10:44:09;;;;;;;5.30;3.72;;;12.80;82.70;;;;;;5056207;28;20033;-96
2024/02/19 10:46:35;;;;;;;5.30;3.33;;;12.80;82.70;;;;;;5043381;28;20609;-93
2024/02/19 10:49:01;;;;;;;7.43;3.65;;;12.80;82.70;;;;;;5031259;28;20497;-92
2024/02/19 10:51:29;;;;;;;6.53;3.65;;;12.80;82.70;;;;;;5045057;28;20093;-87
2024/02/19 10:54:02;;;;;;;4.70;3.05;;;12.90;82.70;;;;;;5048753;28;20499;-87
2024/02/19 10:56:36;;;;;;;6.57;3.40;;;12.90;82.70;;;;;;5041399;28;20022;-96
2024/02/19 10:59:02;;;;;;;6.30;3.93;;;12.90;82.70;;;;;;5035284;28;20176;-94
2024/02/19 11:01:48;;;;;;;6.10;3.22;;;12.90;82.70;;;;;;5030398;28;20294;-86
2024/02/19 11:04:18;;;;;;;5.68;3.63;;;12.90;82.70;;;;;;5032133;28;20048;-86
2024/02/19 11:07:00;;;;;;;5.75;3.85;;;12.90;82.70;;;;;;5033353;28;20060;-92
2024/02/19 11:09:33;;;;;;;5.22;3.15;;;13.00;82.70;;;;;;5046053;28;20021;-83
2024/02/19 11:12:05;;;;;;;5.50;3.58;;;12.90;82.60;;;;;;5037422;28;20037;-83
2024/02/19 11:14:34;;;;;;;6.22;3.90;;;13.00;82.70;;;;;;5048235;28;20037;-92
2024/02/19 11:17:01;;;;;;;5.13;3.58;;;13.00;82.70;;;;;;5029111;28;20071;-96
2024/02/19 11:19:28;;;;;;;5.80;3.85;;;13.00;82.60;;;;;;5029042;28;20033;-86
2024/02/19 11:22:05;;;;;;;6.85;4.05;;;13.00;82.60;;;;;;5045365;28;20045;-83
2024/02/19 11:24:31;;;;;;;6.80;3.65;;;13.10;82.70;;;;;;5049351;28;20484;-83
2024/02/19 11:26:57;;;;;;;6.13;4.00;;;13.00;82.60;;;;;;5047390;28;20617;-86
2024/02/19 11:29:24;;;;;;;5.80;3.83;;;13.00;82.60;;;;;;5032061;28;20188;-96
2024/02/19 11:32:02;;;;;;;4.90;3.55;;;13.10;82.60;;;;;;5044542;28;20036;-83
2024/02/19 11:34:28;;;;;;;6.60;3.92;;;13.10;82.70;;;;;;5037859;28;20037;-96
2024/02/19 11:37:06;;;;;;;6.03;3.95;;;13.10;82.60;;;;;;5026229;28;20040;-86
2024/02/19 11:39:33;;;;;;;5.97;3.60;;;13.10;82.60;;;;;;5032442;28;20021;-86
2024/02/19 11:42:03;;;;;;;5.78;3.78;;;13.10;82.60;;;;;;5029931;28;20022;-86
2024/02/19 11:44:30;;;;;;;5.95;3.97;;;13.10;82.60;;;;;;5025890;28;20054;-86
2024/02/19 11:46:57;;;;;;;5.55;3.88;;;13.10;82.60;;;;;;5040511;28;20080;-96
2024/02/19 11:49:24;;;;;;;5.60;3.92;;;13.10;82.50;;;;;;5021483;28;20026;-96
2024/02/19 11:51:52;;;;;;;6.55;3.92;;;13.20;82.60;;;;;;5020965;28;20068;-89
2024/02/19 11:54:18;;;;;;;5.70;3.83;;;13.20;82.60;;;;;;5017148;28;20029;-93
2024/02/19 11:56:54;;;;;;;5.90;3.88;;;13.20;82.60;;;;;;5022081;28;20028;-89
2024/02/19 11:59:21;;;;;;;5.00;3.63;;;13.20;82.60;;;;;;5026667;28;20042;-90
2024/02/19 12:01:53;;;;;;;5.85;4.18;;;13.20;82.60;;;;;;5033751;28;20034;-92
2024/02/19 12:04:19;;;;;;;6.35;4.30;;;13.20;82.60;;;;;;5034814;28;20033;-82
2024/02/19 12:06:44;;;;;;;5.93;4.00;;;13.20;82.50;;;;;;5032474;28;20037;-92
2024/02/19 12:09:11;;;;;;;6.35;4.40;;;13.20;82.50;;;;;;5032906;28;20028;-94
2024/02/19 12:11:40;;;;;;;5.53;3.80;;;13.30;82.50;;;;;;5033501;28;20037;-92
2024/02/19 12:14:09;;;;;;;5.20;3.78;;;13.30;82.50;;;;;;5014088;28;20025;-90
2024/02/19 12:16:35;;;;;;;7.00;4.10;;;13.30;82.60;;;;;;5014609;28;20088;-81
2024/02/19 12:19:01;;;;;;;5.82;3.65;;;13.30;82.60;;;;;;5032462;28;20025;-90
2024/02/19 12:21:28;;;;;;;6.70;4.10;;;13.30;82.50;;;;;;5034748;28;20116;-81
2024/02/19 12:23:54;;;;;;;6.30;3.85;;;13.30;82.50;;;;;;5031942;28;20087;-91
2024/02/19 12:26:23;;;;;;;5.38;3.83;;;13.30;82.50;;;;;;5041067;28;20045;-85
2024/02/19 12:28:49;;;;;;;6.82;4.10;;;13.40;82.50;;;;;;5035392;28;20029;-91
2024/02/19 12:31:16;;;;;;;6.60;4.38;;;13.30;82.50;;;;;;5001245;28;20071;-91
2024/02/19 12:33:43;;;;;;;6.30;3.85;;;13.40;82.50;;;;;;5016776;28;20025;-90
2024/02/19 12:36:12;;;;;;;7.30;4.13;;;13.40;83.10;;;;;;5034099;28;20038;-83
2024/02/19 12:38:45;;;;;;;6.60;4.07;;;13.40;82.50;;;;;;5044507;28;20021;-85
2024/02/19 12:41:13;;;;;;;6.18;4.20;;;13.40;82.50;;;;;;5014176;28;20037;-85
2024/02/19 12:43:44;;;;;;;6.80;4.40;;;13.40;82.50;;;;;;5033216;28;20409;-85
2024/02/19 12:46:11;;;;;;;7.82;4.47;;;13.40;82.50;;;;;;5016434;28;20029;-81
2024/02/19 12:48:39;;;;;;;6.07;4.10;;;13.40;82.50;;;;;;5030713;28;20424;-81